sensor_id;sensor_type;location;lat;lon;timestamp;pressure;altitude;pressure_sealevel;temperature;humidity
28167;BME280;15455;53.376;-6.262;2024-03-02T00:01:34;99050.56;;;1.94;100.00
28167;BME280;15455;53.376;-6.262;2024-03-02T00:04:20;99048.84;;;1.96;100.00
28167;BME280;15455;53.376;-6.262;2024-03-02T00:07:06;99050.53;;;1.89;100.00
28167;BME280;15455;53.376;-6.262;2024-03-02T00:09:53;99052.22;;;1.87;100.00
28167;BME280;15455;53.376;-6.262;2024-03-02T00:12:40;99051.34;;;1.84;100.00
28167;BME280;15455;53.376;-6.262;2024-03-02T00:18:34;99054.78;;;1.83;100.00
28167;BME280;15455;53.376;-6.262;2024-03-02T00:21:20;99048.72;;;1.76;100.00
28167;BME280;15455;53.376;-6.262;2024-03-02T00:24:31;99048.69;;;1.67;100.00
28167;BME280;15455;53.376;-6.262;2024-03-02T00:27:21;99046.06;;;1.59;100.00
28167;BME280;15455;53.376;-6.262;2024-03-02T00:30:51;99051.22;;;1.59;100.00
28167;BME280;15455;53.376;-6.262;2024-03-02T00:33:43;99056.34;;;1.58;100.00
28167;BME280;15455;53.376;-6.262;2024-03-02T00:36:30;99048.59;;;1.53;100.00
28167;BME280;15455;53.376;-6.262;2024-03-02T00:39:16;99049.41;;;1.47;100.00
28167;BME280;15455;53.376;-6.262;2024-03-02T00:42:03;99057.09;;;1.44;100.00
28167;BME280;15455;53.376;-6.262;2024-03-02T00:44:49;99055.41;;;1.45;100.00
28167;BME280;15455;53.376;-6.262;2024-03-02T00:47:41;99056.28;;;1.51;100.00
28167;BME280;15455;53.376;-6.262;2024-03-02T00:50:26;99055.44;;;1.51;100.00
28167;BME280;15455;53.376;-6.262;2024-03-02T00:53:17;99053.69;;;1.47;100.00
28167;BME280;15455;53.376;-6.262;2024-03-02T00:56:09;99047.72;;;1.51;100.00
28167;BME280;15455;53.376;-6.262;2024-03-02T00:58:56;99040.88;;;1.53;100.00
28167;BME280;15455;53.376;-6.262;2024-03-02T01:01:42;99047.72;;;1.51;100.00
28167;BME280;15455;53.376;-6.262;2024-03-02T01:04:28;99052.03;;;1.50;100.00
28167;BME280;15455;53.376;-6.262;2024-03-02T01:07:13;99046.88;;;1.50;100.00
28167;BME280;15455;53.376;-6.262;2024-03-02T01:09:59;99045.16;;;1.48;100.00
28167;BME280;15455;53.376;-6.262;2024-03-02T01:12:44;99050.28;;;1.49;100.00
28167;BME280;15455;53.376;-6.262;2024-03-02T01:15:30;99050.28;;;1.49;100.00
28167;BME280;15455;53.376;-6.262;2024-03-02T01:18:16;99053.72;;;1.53;100.00
28167;BME280;15455;53.376;-6.262;2024-03-02T01:21:02;99041.75;;;1.55;100.00
28167;BME280;15455;53.376;-6.262;2024-03-02T01:23:48;99046.06;;;1.56;100.00
28167;BME280;15455;53.376;-6.262;2024-03-02T01:26:33;99042.63;;;1.60;100.00
28167;BME280;15455;53.376;-6.262;2024-03-02T01:29:19;99040.94;;;1.59;100.00
28167;BME280;15455;53.376;-6.262;2024-03-02T01:32:05;99052.03;;;1.50;100.00
28167;BME280;15455;53.376;-6.262;2024-03-02T01:34:51;99046.88;;;1.49;100.00
28167;BME280;15455;53.376;-6.262;2024-03-02T01:37:36;99051.13;;;1.45;100.00
28167;BME280;15455;53.376;-6.262;2024-03-02T01:40:22;99054.59;;;1.50;100.00
28167;BME280;15455;53.376;-6.262;2024-03-02T01:43:11;99046.88;;;1.49;100.00
28167;BME280;15455;53.376;-6.262;2024-03-02T01:45:57;99052.03;;;1.52;100.00
28167;BME280;15455;53.376;-6.262;2024-03-02T01:48:43;99049.38;;;1.43;100.00
28167;BME280;15455;53.376;-6.262;2024-03-02T01:51:29;99051.09;;;1.41;100.00
28167;BME280;15455;53.376;-6.262;2024-03-02T01:54:14;99057.91;;;1.37;100.00
28167;BME280;15455;53.376;-6.262;2024-03-02T01:57:00;99052.75;;;1.32;100.00
28167;BME280;15455;53.376;-6.262;2024-03-02T01:59:46;99060.44;;;1.31;100.00
28167;BME280;15455;53.376;-6.262;2024-03-02T02:02:36;99056.09;;;1.24;100.00
28167;BME280;15455;53.376;-6.262;2024-03-02T02:05:22;99061.19;;;1.17;100.00
28167;BME280;15455;53.376;-6.262;2024-03-02T02:08:08;99062.88;;;1.15;100.00
28167;BME280;15455;53.376;-6.262;2024-03-02T02:10:53;99068.03;;;1.17;100.00
28167;BME280;15455;53.376;-6.262;2024-03-02T02:13:39;99067.97;;;1.09;100.00
28167;BME280;15455;53.376;-6.262;2024-03-02T02:16:24;99071.34;;;1.03;100.00
28167;BME280;15455;53.376;-6.262;2024-03-02T02:19:10;99077.28;;;0.98;100.00
28167;BME280;15455;53.376;-6.262;2024-03-02T02:21:56;99073.84;;;0.96;100.00
28167;BME280;15455;53.376;-6.262;2024-03-02T02:24:42;99074.72;;;0.99;100.00
28167;BME280;15455;53.376;-6.262;2024-03-02T02:27:27;99072.13;;;0.95;100.00
28167;BME280;15455;53.376;-6.262;2024-03-02T02:30:13;99077.19;;;0.87;100.00
28167;BME280;15455;53.376;-6.262;2024-03-02T02:32:59;99079.78;;;0.89;100.00
28167;BME280;15455;53.376;-6.262;2024-03-02T02:35:45;99084.91;;;0.89;100.00
28167;BME280;15455;53.376;-6.262;2024-03-02T02:38:32;99084.00;;;0.85;100.00
28167;BME280;15455;53.376;-6.262;2024-03-02T02:41:19;99087.34;;;0.76;100.00
28167;BME280;15455;53.376;-6.262;2024-03-02T02:44:05;99092.47;;;0.73;100.00
28167;BME280;15455;53.376;-6.262;2024-03-02T02:46:50;99088.16;;;0.71;100.00
28167;BME280;15455;53.376;-6.262;2024-03-02T02:49:36;99089.84;;;0.68;100.00
28167;BME280;15455;53.376;-6.262;2024-03-02T02:52:21;99082.09;;;0.62;100.00
28167;BME280;15455;53.376;-6.262;2024-03-02T02:55:12;99092.38;;;0.64;100.00
28167;BME280;15455;53.376;-6.262;2024-03-02T02:57:59;99089.78;;;0.62;100.00
28167;BME280;15455;53.376;-6.262;2024-03-02T03:00:45;99096.66;;;0.66;100.00
28167;BME280;15455;53.376;-6.262;2024-03-02T03:03:30;99094.97;;;0.65;100.00
28167;BME280;15455;53.376;-6.262;2024-03-02T03:06:16;99091.50;;;0.63;100.00
28167;BME280;15455;53.376;-6.262;2024-03-02T03:09:01;99088.09;;;0.66;100.00
28167;BME280;15455;53.376;-6.262;2024-03-02T03:11:47;99085.53;;;0.64;100.00
28167;BME280;15455;53.376;-6.262;2024-03-02T03:14:33;99087.16;;;0.58;100.00
28167;BME280;15455;53.376;-6.262;2024-03-02T03:17:18;99089.69;;;0.53;100.00
28167;BME280;15455;53.376;-6.262;2024-03-02T03:20:04;99086.25;;;0.51;100.00
28167;BME280;15455;53.376;-6.262;2024-03-02T03:22:51;99091.41;;;0.56;100.00
28167;BME280;15455;53.376;-6.262;2024-03-02T03:25:36;99093.06;;;0.50;100.00
28167;BME280;15455;53.376;-6.262;2024-03-02T03:28:22;99093.97;;;0.52;100.00
28167;BME280;15455;53.376;-6.262;2024-03-02T03:31:07;99096.53;;;0.54;100.00
28167;BME280;15455;53.376;-6.262;2024-03-02T03:33:52;99099.94;;;0.53;100.00
28167;BME280;15455;53.376;-6.262;2024-03-02T03:36:38;99102.50;;;0.53;100.00
28167;BME280;15455;53.376;-6.262;2024-03-02T03:39:23;99102.53;;;0.55;100.00
28167;BME280;15455;53.376;-6.262;2024-03-02T03:42:09;99105.06;;;0.53;100.00
28167;BME280;15455;53.376;-6.262;2024-03-02T03:44:54;99106.75;;;0.49;100.00
28167;BME280;15455;53.376;-6.262;2024-03-02T03:47:40;99104.22;;;0.51;100.00
28167;BME280;15455;53.376;-6.262;2024-03-02T03:50:25;99105.19;;;0.61;100.00
28167;BME280;15455;53.376;-6.262;2024-03-02T03:53:11;99106.06;;;0.66;100.00
28167;BME280;15455;53.376;-6.262;2024-03-02T03:55:56;99110.38;;;0.65;100.00
28167;BME280;15455;53.376;-6.262;2024-03-02T03:58:42;99114.59;;;0.65;100.00
28167;BME280;15455;53.376;-6.262;2024-03-02T04:01:28;99112.88;;;0.61;100.00
28167;BME280;15455;53.376;-6.262;2024-03-02T04:04:13;99111.16;;;0.61;100.00
28167;BME280;15455;53.376;-6.262;2024-03-02T04:06:59;99110.31;;;0.61;100.00
28167;BME280;15455;53.376;-6.262;2024-03-02T04:09:45;99113.69;;;0.58;100.00
28167;BME280;15455;53.376;-6.262;2024-03-02T04:12:30;99105.09;;;0.56;100.00
28167;BME280;15455;53.376;-6.262;2024-03-02T04:15:16;99110.28;;;0.59;100.00
28167;BME280;15455;53.376;-6.262;2024-03-02T04:18:02;99101.78;;;0.66;100.00
28167;BME280;15455;53.376;-6.262;2024-03-02T04:20:48;99112.97;;;0.72;100.00
28167;BME280;15455;53.376;-6.262;2024-03-02T04:23:38;99105.28;;;0.72;100.00
28167;BME280;15455;53.376;-6.262;2024-03-02T04:26:24;99104.34;;;0.66;100.00
28167;BME280;15455;53.376;-6.262;2024-03-02T04:29:10;99100.94;;;0.66;100.00
28167;BME280;15455;53.376;-6.262;2024-03-02T04:31:56;99098.34;;;0.63;100.00
28167;BME280;15455;53.376;-6.262;2024-03-02T04:34:41;99095.72;;;0.57;100.00
28167;BME280;15455;53.376;-6.262;2024-03-02T04:37:27;99098.28;;;0.55;100.00
28167;BME280;15455;53.376;-6.262;2024-03-02T04:40:13;99099.97;;;0.58;100.00
28167;BME280;15455;53.376;-6.262;2024-03-02T04:42:59;99101.72;;;0.59;100.00
28167;BME280;15455;53.376;-6.262;2024-03-02T04:45:45;99098.28;;;0.57;100.00
28167;BME280;15455;53.376;-6.262;2024-03-02T04:48:31;99101.69;;;0.56;100.00
28167;BME280;15455;53.376;-6.262;2024-03-02T04:51:16;99106.84;;;0.59;100.00
28167;BME280;15455;53.376;-6.262;2024-03-02T04:54:02;99114.53;;;0.57;100.00
28167;BME280;15455;53.376;-6.262;2024-03-02T04:56:48;99114.50;;;0.52;100.00
28167;BME280;15455;53.376;-6.262;2024-03-02T04:59:36;99119.63;;;0.54;100.00
28167;BME280;15455;53.376;-6.262;2024-03-02T05:02:21;99126.47;;;0.52;100.00
28167;BME280;15455;53.376;-6.262;2024-03-02T05:05:07;99114.47;;;0.49;100.00
28167;BME280;15455;53.376;-6.262;2024-03-02T05:07:53;99119.59;;;0.51;100.00
28167;BME280;15455;53.376;-6.262;2024-03-02T05:10:39;99122.13;;;0.45;100.00
28167;BME280;15455;53.376;-6.262;2024-03-02T05:13:24;99124.63;;;0.43;100.00
28167;BME280;15455;53.376;-6.262;2024-03-02T05:16:10;99125.44;;;0.38;100.00
28167;BME280;15455;53.376;-6.262;2024-03-02T05:18:55;99128.88;;;0.40;100.00
28167;BME280;15455;53.376;-6.262;2024-03-02T05:21:41;99121.13;;;0.35;100.00
28167;BME280;15455;53.376;-6.262;2024-03-02T05:24:27;99126.25;;;0.35;100.00
28167;BME280;15455;53.376;-6.262;2024-03-02T05:27:13;99122.81;;;0.33;100.00
28167;BME280;15455;53.376;-6.262;2024-03-02T05:29:59;99126.22;;;0.30;100.00
28167;BME280;15455;53.376;-6.262;2024-03-02T05:32:44;99124.44;;;0.26;100.00
28167;BME280;15455;53.376;-6.262;2024-03-02T05:35:30;99121.78;;;0.20;100.00
28167;BME280;15455;53.376;-6.262;2024-03-02T05:38:15;99128.69;;;0.26;100.00
28167;BME280;15455;53.376;-6.262;2024-03-02T05:41:01;99135.56;;;0.27;100.00
28167;BME280;15455;53.376;-6.262;2024-03-02T05:43:47;99145.91;;;0.34;100.00
28167;BME280;15455;53.376;-6.262;2024-03-02T05:46:32;99149.41;;;0.40;100.00
28167;BME280;15455;53.376;-6.262;2024-03-02T05:49:18;99145.22;;;0.45;100.00
28167;BME280;15455;53.376;-6.262;2024-03-02T05:52:03;99147.81;;;0.48;100.00
28167;BME280;15455;53.376;-6.262;2024-03-02T05:54:49;99141.75;;;0.43;100.00
28167;BME280;15455;53.376;-6.262;2024-03-02T05:57:35;99146.91;;;0.46;100.00
28167;BME280;15455;53.376;-6.262;2024-03-02T06:00:30;99147.03;;;0.54;100.00
28167;BME280;15455;53.376;-6.262;2024-03-02T06:03:17;99139.31;;;0.52;100.00
28167;BME280;15455;53.376;-6.262;2024-03-02T06:06:03;99148.72;;;0.53;100.00
28167;BME280;15455;53.376;-6.262;2024-03-02T06:08:48;99148.69;;;0.51;100.00
28167;BME280;15455;53.376;-6.262;2024-03-02T06:11:39;99155.56;;;0.52;100.00
28167;BME280;15455;53.376;-6.262;2024-03-02T06:14:25;99164.09;;;0.53;100.00
28167;BME280;15455;53.376;-6.262;2024-03-02T06:17:11;99164.06;;;0.50;100.00
28167;BME280;15455;53.376;-6.262;2024-03-02T06:19:56;99158.06;;;0.46;100.00
28167;BME280;15455;53.376;-6.262;2024-03-02T06:22:42;99167.44;;;0.44;100.00
28167;BME280;15455;53.376;-6.262;2024-03-02T06:25:27;99171.63;;;0.38;100.00
28167;BME280;15455;53.376;-6.262;2024-03-02T06:28:13;99169.03;;;0.36;100.00
28167;BME280;15455;53.376;-6.262;2024-03-02T06:31:01;99175.00;;;0.33;100.00
28167;BME280;15455;53.376;-6.262;2024-03-02T06:33:47;99178.44;;;0.37;100.00
28167;BME280;15455;53.376;-6.262;2024-03-02T06:36:33;99179.28;;;0.36;100.00
28167;BME280;15455;53.376;-6.262;2024-03-02T06:39:19;99173.25;;;0.31;100.00
28167;BME280;15455;53.376;-6.262;2024-03-02T06:42:05;99174.97;;;0.30;100.00
28167;BME280;15455;53.376;-6.262;2024-03-02T06:44:51;99178.38;;;0.29;100.00
28167;BME280;15455;53.376;-6.262;2024-03-02T06:47:36;99177.41;;;0.24;100.00
28167;BME280;15455;53.376;-6.262;2024-03-02T06:50:22;99181.69;;;0.22;100.00
28167;BME280;15455;53.376;-6.262;2024-03-02T06:53:07;99180.94;;;0.31;100.00
28167;BME280;15455;53.376;-6.262;2024-03-02T06:55:53;99181.78;;;0.31;100.00
28167;BME280;15455;53.376;-6.262;2024-03-02T06:58:39;99193.78;;;0.32;100.00
28167;BME280;15455;53.376;-6.262;2024-03-02T07:01:24;99194.59;;;0.30;100.00
28167;BME280;15455;53.376;-6.262;2024-03-02T07:04:11;99194.63;;;0.31;100.00
28167;BME280;15455;53.376;-6.262;2024-03-02T07:06:57;99186.97;;;0.34;100.00
28167;BME280;15455;53.376;-6.262;2024-03-02T07:09:42;99188.66;;;0.32;100.00
28167;BME280;15455;53.376;-6.262;2024-03-02T07:12:28;99194.63;;;0.31;100.00
28167;BME280;15455;53.376;-6.262;2024-03-02T07:15:13;99192.97;;;0.33;100.00
28167;BME280;15455;53.376;-6.262;2024-03-02T07:18:18;99197.19;;;0.31;100.00
28167;BME280;15455;53.376;-6.262;2024-03-02T07:21:03;99196.34;;;0.31;100.00
28167;BME280;15455;53.376;-6.262;2024-03-02T07:23:50;99185.19;;;0.29;100.00
28167;BME280;15455;53.376;-6.262;2024-03-02T07:26:36;99195.50;;;0.32;100.00
28167;BME280;15455;53.376;-6.262;2024-03-02T07:29:24;99193.84;;;0.36;100.00
28167;BME280;15455;53.376;-6.262;2024-03-02T07:32:10;99187.88;;;0.37;100.00
28167;BME280;15455;53.376;-6.262;2024-03-02T07:34:56;99199.00;;;0.39;100.00
28167;BME280;15455;53.376;-6.262;2024-03-02T07:37:42;99196.53;;;0.45;100.00
28167;BME280;15455;53.376;-6.262;2024-03-02T07:40:28;99200.94;;;0.55;100.00
28167;BME280;15455;53.376;-6.262;2024-03-02T07:43:13;99196.72;;;0.60;100.00
28167;BME280;15455;53.376;-6.262;2024-03-02T07:45:59;99201.06;;;0.64;100.00
28167;BME280;15455;53.376;-6.262;2024-03-02T07:48:44;99202.81;;;0.67;100.00
28167;BME280;15455;53.376;-6.262;2024-03-02T07:51:30;99203.66;;;0.67;100.00
28167;BME280;15455;53.376;-6.262;2024-03-02T07:54:16;99202.00;;;0.71;100.00
28167;BME280;15455;53.376;-6.262;2024-03-02T07:57:01;99206.28;;;0.74;100.00
28167;BME280;15455;53.376;-6.262;2024-03-02T07:59:47;99201.25;;;0.80;100.00
28167;BME280;15455;53.376;-6.262;2024-03-02T08:02:33;99207.28;;;0.85;100.00
28167;BME280;15455;53.376;-6.262;2024-03-02T08:05:19;99205.63;;;0.89;100.00
28167;BME280;15455;53.376;-6.262;2024-03-02T08:08:05;99207.41;;;0.93;100.00
28167;BME280;15455;53.376;-6.262;2024-03-02T08:10:50;99210.00;;;0.96;100.00
28167;BME280;15455;53.376;-6.262;2024-03-02T08:13:36;99200.56;;;0.96;100.00
28167;BME280;15455;53.376;-6.262;2024-03-02T08:16:23;99205.75;;;1.02;100.00
28167;BME280;15455;53.376;-6.262;2024-03-02T08:19:08;99204.94;;;1.05;100.00
28167;BME280;15455;53.376;-6.262;2024-03-02T08:21:54;99200.75;;;1.12;100.00
28167;BME280;15455;53.376;-6.262;2024-03-02T08:24:40;99196.56;;;1.20;100.00
28167;BME280;15455;53.376;-6.262;2024-03-02T08:27:26;99196.59;;;1.26;100.00
28167;BME280;15455;53.376;-6.262;2024-03-02T08:30:12;99203.53;;;1.33;100.00
28167;BME280;15455;53.376;-6.262;2024-03-02T08:32:58;99202.72;;;1.39;100.00
28167;BME280;15455;53.376;-6.262;2024-03-02T08:35:44;99201.94;;;1.45;100.00
28167;BME280;15455;53.376;-6.262;2024-03-02T08:38:30;99195.09;;;1.47;100.00
28167;BME280;15455;53.376;-6.262;2024-03-02T08:41:16;99189.13;;;1.52;100.00
28167;BME280;15455;53.376;-6.262;2024-03-02T08:44:01;99193.50;;;1.61;100.00
28167;BME280;15455;53.376;-6.262;2024-03-02T08:46:47;99197.84;;;1.68;100.00
28167;BME280;15455;53.376;-6.262;2024-03-02T08:49:33;99184.19;;;1.76;100.00
28167;BME280;15455;53.376;-6.262;2024-03-02T08:52:18;99186.78;;;1.80;100.00
28167;BME280;15455;53.376;-6.262;2024-03-02T08:55:04;99185.97;;;1.84;100.00
28167;BME280;15455;53.376;-6.262;2024-03-02T08:57:50;99193.72;;;1.90;100.00
28167;BME280;15455;53.376;-6.262;2024-03-02T09:00:36;99189.50;;;2.00;100.00
28167;BME280;15455;53.376;-6.262;2024-03-02T09:03:22;99193.00;;;2.08;100.00
28167;BME280;15455;53.376;-6.262;2024-03-02T09:06:07;99188.78;;;2.17;100.00
28167;BME280;15455;53.376;-6.262;2024-03-02T09:08:52;99194.78;;;2.20;100.00
28167;BME280;15455;53.376;-6.262;2024-03-02T09:11:38;99192.22;;;2.23;100.00
28167;BME280;15455;53.376;-6.262;2024-03-02T09:14:24;99190.56;;;2.27;100.00
28167;BME280;15455;53.376;-6.262;2024-03-02T09:17:10;99193.16;;;2.32;100.00
28167;BME280;15455;53.376;-6.262;2024-03-02T09:19:57;99182.84;;;2.32;100.00
28167;BME280;15455;53.376;-6.262;2024-03-02T09:22:43;99182.00;;;2.36;100.00
28167;BME280;15455;53.376;-6.262;2024-03-02T09:25:28;99174.31;;;2.40;100.00
28167;BME280;15455;53.376;-6.262;2024-03-02T09:28:15;99173.47;;;2.46;100.00
28167;BME280;15455;53.376;-6.262;2024-03-02T09:31:01;99173.50;;;2.54;100.00
28167;BME280;15455;53.376;-6.262;2024-03-02T09:33:46;99170.97;;;2.62;100.00
28167;BME280;15455;53.376;-6.262;2024-03-02T09:36:32;99171.84;;;2.68;100.00
28167;BME280;15455;53.376;-6.262;2024-03-02T09:39:18;99174.44;;;2.73;100.00
28167;BME280;15455;53.376;-6.262;2024-03-02T09:42:04;99173.59;;;2.74;100.00
28167;BME280;15455;53.376;-6.262;2024-03-02T09:44:50;99169.28;;;2.74;100.00
28167;BME280;15455;53.376;-6.262;2024-03-02T09:47:37;99169.34;;;2.81;100.00
28167;BME280;15455;53.376;-6.262;2024-03-02T09:50:23;99178.81;;;2.86;100.00
28167;BME280;15455;53.376;-6.262;2024-03-02T09:53:10;99166.78;;;2.93;100.00
28167;BME280;15455;53.376;-6.262;2024-03-02T09:55:56;99164.25;;;3.07;100.00
28167;BME280;15455;53.376;-6.262;2024-03-02T09:58:41;99159.13;;;3.22;100.00
28167;BME280;15455;53.376;-6.262;2024-03-02T10:01:27;99158.28;;;3.31;100.00
28167;BME280;15455;53.376;-6.262;2024-03-02T10:04:13;99153.97;;;3.35;100.00
28167;BME280;15455;53.376;-6.262;2024-03-02T10:07:15;99148.81;;;3.41;100.00
28167;BME280;15455;53.376;-6.262;2024-03-02T10:10:15;99145.38;;;3.48;100.00
28167;BME280;15455;53.376;-6.262;2024-03-02T10:13:04;99139.38;;;3.51;100.00
28167;BME280;15455;53.376;-6.262;2024-03-02T10:15:53;99136.81;;;3.60;100.00
28167;BME280;15455;53.376;-6.262;2024-03-02T10:18:40;99140.22;;;3.67;100.00
28167;BME280;15455;53.376;-6.262;2024-03-02T10:21:25;99137.63;;;3.71;100.00
28167;BME280;15455;53.376;-6.262;2024-03-02T10:24:11;99134.22;;;3.68;100.00
28167;BME280;15455;53.376;-6.262;2024-03-02T10:26:58;99135.06;;;3.83;100.00
28167;BME280;15455;53.376;-6.262;2024-03-02T10:29:47;99135.91;;;3.95;100.00
28167;BME280;15455;53.376;-6.262;2024-03-02T10:32:33;99141.91;;;4.05;100.00
28167;BME280;15455;53.376;-6.262;2024-03-02T10:35:19;99140.16;;;4.10;100.00
28167;BME280;15455;53.376;-6.262;2024-03-02T10:38:06;99134.13;;;4.17;100.00
28167;BME280;15455;53.376;-6.262;2024-03-02T10:40:52;99128.94;;;4.20;100.00
28167;BME280;15455;53.376;-6.262;2024-03-02T10:43:38;99136.69;;;4.26;100.00
28167;BME280;15455;53.376;-6.262;2024-03-02T10:46:27;99132.34;;;4.42;100.00
28167;BME280;15455;53.376;-6.262;2024-03-02T10:49:14;99126.28;;;4.52;100.00
28167;BME280;15455;53.376;-6.262;2024-03-02T10:52:01;99122.78;;;4.60;100.00
28167;BME280;15455;53.376;-6.262;2024-03-02T10:54:47;99124.50;;;4.58;100.00
28167;BME280;15455;53.376;-6.262;2024-03-02T10:57:48;99114.19;;;4.62;100.00
28167;BME280;15455;53.376;-6.262;2024-03-02T11:00:37;99113.34;;;4.51;100.00
28167;BME280;15455;53.376;-6.262;2024-03-02T11:03:24;99109.91;;;4.50;100.00
28167;BME280;15455;53.376;-6.262;2024-03-02T11:06:11;99119.38;;;4.48;100.00
28167;BME280;15455;53.376;-6.262;2024-03-02T11:09:00;99133.16;;;4.55;100.00
28167;BME280;15455;53.376;-6.262;2024-03-02T11:14:44;99134.84;;;4.62;100.00
28167;BME280;15455;53.376;-6.262;2024-03-02T11:17:32;99138.25;;;4.66;100.00
28167;BME280;15455;53.376;-6.262;2024-03-02T11:20:18;99121.91;;;4.59;100.00
28167;BME280;15455;53.376;-6.262;2024-03-02T11:23:06;99133.94;;;4.71;100.00
28167;BME280;15455;53.376;-6.262;2024-03-02T11:25:52;99133.88;;;4.82;100.00
28167;BME280;15455;53.376;-6.262;2024-03-02T11:28:37;99123.56;;;4.77;100.00
28167;BME280;15455;53.376;-6.262;2024-03-02T11:32:05;99127.78;;;4.94;100.00
28167;BME280;15455;53.376;-6.262;2024-03-02T11:34:50;99126.84;;;5.10;100.00
28167;BME280;15455;53.376;-6.262;2024-03-02T11:37:35;99129.34;;;5.18;100.00
28167;BME280;15455;53.376;-6.262;2024-03-02T11:40:22;99117.31;;;5.14;100.00
28167;BME280;15455;53.376;-6.262;2024-03-02T11:43:07;99123.28;;;5.22;100.00
28167;BME280;15455;53.376;-6.262;2024-03-02T11:46:01;99114.63;;;5.28;100.00
28167;BME280;15455;53.376;-6.262;2024-03-02T11:48:49;99109.44;;;5.31;100.00
28167;BME280;15455;53.376;-6.262;2024-03-02T11:51:35;99100.78;;;5.35;100.00
28167;BME280;15455;53.376;-6.262;2024-03-02T11:54:21;99105.09;;;5.36;100.00
28167;BME280;15455;53.376;-6.262;2024-03-02T11:57:07;99106.03;;;5.27;100.00
28167;BME280;15455;53.376;-6.262;2024-03-02T11:59:53;99116.47;;;5.10;100.00
28167;BME280;15455;53.376;-6.262;2024-03-02T12:02:39;99110.53;;;4.99;100.00
28167;BME280;15455;53.376;-6.262;2024-03-02T12:05:30;99111.38;;;4.99;100.00
28167;BME280;15455;53.376;-6.262;2024-03-02T12:08:16;99111.31;;;5.12;100.00
28167;BME280;15455;53.376;-6.262;2024-03-02T12:11:02;99104.28;;;5.28;100.00
28167;BME280;15455;53.376;-6.262;2024-03-02T12:13:53;99115.47;;;5.30;100.00
28167;BME280;15455;53.376;-6.262;2024-03-02T12:16:45;99116.19;;;5.50;100.00
28167;BME280;15455;53.376;-6.262;2024-03-02T12:19:32;99114.50;;;5.45;100.00
28167;BME280;15455;53.376;-6.262;2024-03-02T12:22:18;99113.69;;;5.39;100.00
28167;BME280;15455;53.376;-6.262;2024-03-02T12:25:04;99111.81;;;5.55;100.00
28167;BME280;15455;53.376;-6.262;2024-03-02T12:27:52;99105.63;;;5.75;100.00
28167;BME280;15455;53.376;-6.262;2024-03-02T12:30:38;99107.34;;;5.73;100.00
28167;BME280;15455;53.376;-6.262;2024-03-02T12:33:24;99101.31;;;5.72;100.00
28167;BME280;15455;53.376;-6.262;2024-03-02T12:36:13;99108.13;;;5.83;100.00
28167;BME280;15455;53.376;-6.262;2024-03-02T12:38:58;99096.97;;;5.74;100.00
28167;BME280;15455;53.376;-6.262;2024-03-02T12:41:45;99088.47;;;5.65;100.00
28167;BME280;15455;53.376;-6.262;2024-03-02T12:44:31;99109.16;;;5.62;100.00
28167;BME280;15455;53.376;-6.262;2024-03-02T12:47:16;99098.91;;;5.54;100.00
28167;BME280;15455;53.376;-6.262;2024-03-02T12:50:03;99089.50;;;5.44;100.00
28167;BME280;15455;53.376;-6.262;2024-03-02T12:52:53;99088.78;;;5.26;100.00
28167;BME280;15455;53.376;-6.262;2024-03-02T12:55:39;99080.84;;;5.48;100.00
28167;BME280;15455;53.376;-6.262;2024-03-02T12:58:26;99077.03;;;5.84;100.00
28167;BME280;15455;53.376;-6.262;2024-03-02T13:01:14;99068.28;;;6.02;100.00
28167;BME280;15455;53.376;-6.262;2024-03-02T13:04:00;99071.75;;;6.00;100.00
28167;BME280;15455;53.376;-6.262;2024-03-02T13:06:47;99069.16;;;5.94;100.00
28167;BME280;15455;53.376;-6.262;2024-03-02T13:09:32;99074.53;;;5.77;100.00
28167;BME280;15455;53.376;-6.262;2024-03-02T13:12:19;99076.31;;;5.70;100.00
28167;BME280;15455;53.376;-6.262;2024-03-02T13:15:05;99083.34;;;5.57;100.00
28167;BME280;15455;53.376;-6.262;2024-03-02T13:17:51;99077.38;;;5.50;100.00
28167;BME280;15455;53.376;-6.262;2024-03-02T13:20:36;99065.28;;;5.52;100.00
28167;BME280;15455;53.376;-6.262;2024-03-02T13:23:22;99064.25;;;5.69;100.00
28167;BME280;15455;53.376;-6.262;2024-03-02T13:26:08;99072.72;;;5.88;100.00
28167;BME280;15455;53.376;-6.262;2024-03-02T13:28:55;99064.00;;;5.92;100.00
28167;BME280;15455;53.376;-6.262;2024-03-02T13:31:41;99072.34;;;6.22;100.00
28167;BME280;15455;53.376;-6.262;2024-03-02T13:34:26;99054.09;;;6.30;100.00
28167;BME280;15455;53.376;-6.262;2024-03-02T13:37:12;99051.59;;;6.25;100.00
28167;BME280;15455;53.376;-6.262;2024-03-02T13:39:57;99056.72;;;6.31;100.00
28167;BME280;15455;53.376;-6.262;2024-03-02T13:42:43;99053.13;;;6.41;100.00
28167;BME280;15455;53.376;-6.262;2024-03-02T13:45:28;99029.59;;;6.55;100.00
28167;BME280;15455;53.376;-6.262;2024-03-02T13:48:14;99035.50;;;6.67;100.00
28167;BME280;15455;53.376;-6.262;2024-03-02T13:51:00;99038.97;;;6.64;100.00
28167;BME280;15455;53.376;-6.262;2024-03-02T13:53:46;99044.06;;;6.72;100.00
28167;BME280;15455;53.376;-6.262;2024-03-02T13:56:31;99034.69;;;6.60;100.00
28167;BME280;15455;53.376;-6.262;2024-03-02T13:59:18;99029.53;;;6.60;100.00
28167;BME280;15455;53.376;-6.262;2024-03-02T14:02:04;99027.38;;;6.88;100.00
28167;BME280;15455;53.376;-6.262;2024-03-02T14:04:50;99026.94;;;7.16;100.00
28167;BME280;15455;53.376;-6.262;2024-03-02T14:07:40;99023.91;;;7.42;100.00
28167;BME280;15455;53.376;-6.262;2024-03-02T14:10:26;99024.53;;;7.58;100.00
28167;BME280;15455;53.376;-6.262;2024-03-02T14:13:12;99018.53;;;7.53;100.00
28167;BME280;15455;53.376;-6.262;2024-03-02T14:15:58;99022.97;;;7.46;100.00
28167;BME280;15455;53.376;-6.262;2024-03-02T14:18:44;99024.75;;;7.44;100.00
28167;BME280;15455;53.376;-6.262;2024-03-02T14:21:30;99020.91;;;7.16;100.00
28167;BME280;15455;53.376;-6.262;2024-03-02T14:24:15;99028.22;;;6.90;100.00
28167;BME280;15455;53.376;-6.262;2024-03-02T14:27:01;99022.03;;;6.41;100.00
28167;BME280;15455;53.376;-6.262;2024-03-02T14:30:09;99023.31;;;6.10;100.00
28167;BME280;15455;53.376;-6.262;2024-03-02T14:32:55;99030.22;;;6.07;100.00
28167;BME280;15455;53.376;-6.262;2024-03-02T14:35:40;99013.59;;;6.25;100.00
28167;BME280;15455;53.376;-6.262;2024-03-02T14:38:26;99009.25;;;6.88;100.00